sensor_id;sensor_type;location;lat;lon;timestamp;P1;durP1;ratioP1;P2;durP2;ratioP2
71104;SDS011;58760;48.716;8.962;2023-04-24T00:01:21;1.45;;;0.70;;
71104;SDS011;58760;48.716;8.962;2023-04-24T00:03:46;2.95;;;0.80;;
71104;SDS011;58760;48.716;8.962;2023-04-24T00:06:11;5.32;;;0.82;;
71104;SDS011;58760;48.716;8.962;2023-04-24T00:08:37;3.80;;;0.90;;
71104;SDS011;58760;48.716;8.962;2023-04-24T00:11:03;3.33;;;0.75;;
71104;SDS011;58760;48.716;8.962;2023-04-24T00:13:28;1.98;;;0.80;;
71104;SDS011;58760;48.716;8.962;2023-04-24T00:15:54;1.55;;;0.80;;
71104;SDS011;58760;48.716;8.962;2023-04-24T00:18:21;3.50;;;0.65;;
71104;SDS011;58760;48.716;8.962;2023-04-24T00:20:47;1.65;;;0.70;;
71104;SDS011;58760;48.716;8.962;2023-04-24T00:23:12;3.97;;;0.80;;
71104;SDS011;58760;48.716;8.962;2023-04-24T00:25:38;4.05;;;0.60;;
71104;SDS011;58760;48.716;8.962;2023-04-24T00:28:03;4.55;;;0.70;;
71104;SDS011;58760;48.716;8.962;2023-04-24T00:30:29;3.72;;;0.70;;
71104;SDS011;58760;48.716;8.962;2023-04-24T00:32:54;2.20;;;0.75;;
71104;SDS011;58760;48.716;8.962;2023-04-24T00:35:20;1.20;;;0.47;;
71104;SDS011;58760;48.716;8.962;2023-04-24T00:37:46;1.30;;;0.63;;
71104;SDS011;58760;48.716;8.962;2023-04-24T00:40:11;2.28;;;0.55;;
71104;SDS011;58760;48.716;8.962;2023-04-24T00:42:36;3.38;;;0.77;;
71104;SDS011;58760;48.716;8.962;2023-04-24T00:45:02;2.15;;;0.68;;
71104;SDS011;58760;48.716;8.962;2023-04-24T00:47:28;1.40;;;0.60;;
71104;SDS011;58760;48.716;8.962;2023-04-24T00:49:54;2.10;;;0.70;;
71104;SDS011;58760;48.716;8.962;2023-04-24T00:52:20;2.22;;;0.70;;
71104;SDS011;58760;48.716;8.962;2023-04-24T00:54:45;2.40;;;0.70;;
71104;SDS011;58760;48.716;8.962;2023-04-24T00:57:11;3.38;;;0.60;;
71104;SDS011;58760;48.716;8.962;2023-04-24T00:59:39;1.98;;;0.80;;
71104;SDS011;58760;48.716;8.962;2023-04-24T01:02:07;2.78;;;0.70;;
71104;SDS011;58760;48.716;8.962;2023-04-24T01:04:34;1.80;;;0.70;;
71104;SDS011;58760;48.716;8.962;2023-04-24T01:06:59;1.23;;;0.50;;
71104;SDS011;58760;48.716;8.962;2023-04-24T01:09:25;2.72;;;0.80;;
71104;SDS011;58760;48.716;8.962;2023-04-24T01:11:51;2.38;;;0.80;;
71104;SDS011;58760;48.716;8.962;2023-04-24T01:14:17;1.95;;;0.80;;
71104;SDS011;58760;48.716;8.962;2023-04-24T01:16:43;1.42;;;0.70;;
71104;SDS011;58760;48.716;8.962;2023-04-24T01:19:08;3.08;;;0.70;;
71104;SDS011;58760;48.716;8.962;2023-04-24T01:21:35;2.28;;;0.60;;
71104;SDS011;58760;48.716;8.962;2023-04-24T01:24:05;2.00;;;0.70;;
71104;SDS011;58760;48.716;8.962;2023-04-24T01:26:32;2.00;;;0.70;;
71104;SDS011;58760;48.716;8.962;2023-04-24T01:28:57;1.80;;;0.73;;
71104;SDS011;58760;48.716;8.962;2023-04-24T01:31:23;1.55;;;0.65;;
71104;SDS011;58760;48.716;8.962;2023-04-24T01:33:49;1.88;;;0.77;;
71104;SDS011;58760;48.716;8.962;2023-04-24T01:38:41;2.90;;;0.80;;
71104;SDS011;58760;48.716;8.962;2023-04-24T01:41:06;3.20;;;0.70;;
71104;SDS011;58760;48.716;8.962;2023-04-24T01:43:32;1.73;;;0.70;;
71104;SDS011;58760;48.716;8.962;2023-04-24T01:45:57;2.88;;;0.82;;
71104;SDS011;58760;48.716;8.962;2023-04-24T01:48:22;5.05;;;0.80;;
71104;SDS011;58760;48.716;8.962;2023-04-24T01:50:48;1.95;;;0.65;;
71104;SDS011;58760;48.716;8.962;2023-04-24T01:53:13;2.75;;;0.68;;
71104;SDS011;58760;48.716;8.962;2023-04-24T01:55:39;2.13;;;1.00;;
71104;SDS011;58760;48.716;8.962;2023-04-24T01:58:05;2.10;;;0.80;;
71104;SDS011;58760;48.716;8.962;2023-04-24T02:00:30;2.72;;;0.88;;
71104;SDS011;58760;48.716;8.962;2023-04-24T02:02:56;2.25;;;0.75;;
71104;SDS011;58760;48.716;8.962;2023-04-24T02:05:21;2.15;;;0.70;;
71104;SDS011;58760;48.716;8.962;2023-04-24T02:07:46;2.13;;;0.65;;
71104;SDS011;58760;48.716;8.962;2023-04-24T02:10:12;1.70;;;0.70;;
71104;SDS011;58760;48.716;8.962;2023-04-24T02:12:37;2.35;;;0.88;;
71104;SDS011;58760;48.716;8.962;2023-04-24T02:15:03;5.95;;;1.02;;
71104;SDS011;58760;48.716;8.962;2023-04-24T02:17:29;3.22;;;0.63;;
71104;SDS011;58760;48.716;8.962;2023-04-24T02:19:55;1.75;;;0.88;;
71104;SDS011;58760;48.716;8.962;2023-04-24T02:22:21;2.67;;;0.82;;
71104;SDS011;58760;48.716;8.962;2023-04-24T02:24:46;4.05;;;0.90;;
71104;SDS011;58760;48.716;8.962;2023-04-24T02:27:12;3.05;;;0.70;;
71104;SDS011;58760;48.716;8.962;2023-04-24T02:29:38;2.25;;;0.80;;
71104;SDS011;58760;48.716;8.962;2023-04-24T02:32:03;4.30;;;1.00;;
71104;SDS011;58760;48.716;8.962;2023-04-24T02:34:28;3.85;;;1.23;;
71104;SDS011;58760;48.716;8.962;2023-04-24T02:36:54;2.97;;;0.98;;
71104;SDS011;58760;48.716;8.962;2023-04-24T02:39:19;3.45;;;1.10;;
71104;SDS011;58760;48.716;8.962;2023-04-24T02:41:45;3.63;;;0.90;;
71104;SDS011;58760;48.716;8.962;2023-04-24T02:44:10;2.92;;;0.90;;
71104;SDS011;58760;48.716;8.962;2023-04-24T02:46:36;3.08;;;0.80;;
71104;SDS011;58760;48.716;8.962;2023-04-24T02:49:01;1.95;;;0.70;;
71104;SDS011;58760;48.716;8.962;2023-04-24T02:51:27;3.70;;;0.90;;
71104;SDS011;58760;48.716;8.962;2023-04-24T02:53:52;2.03;;;0.80;;
71104;SDS011;58760;48.716;8.962;2023-04-24T02:56:18;3.42;;;0.90;;
71104;SDS011;58760;48.716;8.962;2023-04-24T02:58:43;2.95;;;0.80;;
71104;SDS011;58760;48.716;8.962;2023-04-24T03:01:09;3.72;;;0.82;;
71104;SDS011;58760;48.716;8.962;2023-04-24T03:03:35;1.80;;;0.70;;
71104;SDS011;58760;48.716;8.962;2023-04-24T03:06:01;6.28;;;1.00;;
71104;SDS011;58760;48.716;8.962;2023-04-24T03:08:26;4.20;;;0.90;;
71104;SDS011;58760;48.716;8.962;2023-04-24T03:10:52;1.55;;;0.80;;
71104;SDS011;58760;48.716;8.962;2023-04-24T03:13:17;4.90;;;1.02;;
71104;SDS011;58760;48.716;8.962;2023-04-24T03:15:43;1.90;;;0.90;;
71104;SDS011;58760;48.716;8.962;2023-04-24T03:18:08;2.40;;;0.90;;
71104;SDS011;58760;48.716;8.962;2023-04-24T03:20:33;4.25;;;1.65;;
71104;SDS011;58760;48.716;8.962;2023-04-24T03:22:59;3.80;;;1.02;;
71104;SDS011;58760;48.716;8.962;2023-04-24T03:25:25;4.20;;;1.08;;
71104;SDS011;58760;48.716;8.962;2023-04-24T03:27:50;3.15;;;0.85;;
71104;SDS011;58760;48.716;8.962;2023-04-24T03:30:16;1.55;;;0.70;;
71104;SDS011;58760;48.716;8.962;2023-04-24T03:32:41;4.03;;;0.98;;
71104;SDS011;58760;48.716;8.962;2023-04-24T03:35:07;2.47;;;0.93;;
71104;SDS011;58760;48.716;8.962;2023-04-24T03:37:33;5.38;;;1.20;;
71104;SDS011;58760;48.716;8.962;2023-04-24T03:39:59;4.20;;;0.98;;
71104;SDS011;58760;48.716;8.962;2023-04-24T03:42:24;3.60;;;0.80;;
71104;SDS011;58760;48.716;8.962;2023-04-24T03:44:50;2.28;;;0.80;;
71104;SDS011;58760;48.716;8.962;2023-04-24T03:47:15;1.70;;;0.80;;
71104;SDS011;58760;48.716;8.962;2023-04-24T03:49:40;3.20;;;0.80;;
71104;SDS011;58760;48.716;8.962;2023-04-24T03:52:06;1.60;;;0.70;;
71104;SDS011;58760;48.716;8.962;2023-04-24T03:54:31;2.17;;;0.70;;
71104;SDS011;58760;48.716;8.962;2023-04-24T03:56:57;2.33;;;0.80;;
71104;SDS011;58760;48.716;8.962;2023-04-24T03:59:22;1.48;;;0.88;;
71104;SDS011;58760;48.716;8.962;2023-04-24T04:01:47;2.05;;;0.85;;
71104;SDS011;58760;48.716;8.962;2023-04-24T04:04:13;2.63;;;0.80;;
71104;SDS011;58760;48.716;8.962;2023-04-24T04:06:38;3.03;;;0.75;;
71104;SDS011;58760;48.716;8.962;2023-04-24T04:09:04;3.40;;;0.90;;
71104;SDS011;58760;48.716;8.962;2023-04-24T04:11:29;2.55;;;1.08;;
71104;SDS011;58760;48.716;8.962;2023-04-24T04:13:55;2.85;;;0.77;;
71104;SDS011;58760;48.716;8.962;2023-04-24T04:16:21;1.90;;;0.90;;
71104;SDS011;58760;48.716;8.962;2023-04-24T04:18:47;5.72;;;1.10;;
71104;SDS011;58760;48.716;8.962;2023-04-24T04:21:13;2.70;;;1.02;;
71104;SDS011;58760;48.716;8.962;2023-04-24T04:23:38;3.03;;;1.35;;
71104;SDS011;58760;48.716;8.962;2023-04-24T04:26:05;2.08;;;0.90;;
71104;SDS011;58760;48.716;8.962;2023-04-24T04:28:30;5.05;;;1.25;;
71104;SDS011;58760;48.716;8.962;2023-04-24T04:30:56;3.50;;;1.38;;
71104;SDS011;58760;48.716;8.962;2023-04-24T04:33:26;4.90;;;1.30;;
71104;SDS011;58760;48.716;8.962;2023-04-24T04:35:51;3.83;;;1.30;;
71104;SDS011;58760;48.716;8.962;2023-04-24T04:38:18;3.35;;;1.50;;
71104;SDS011;58760;48.716;8.962;2023-04-24T04:40:44;3.33;;;1.27;;
71104;SDS011;58760;48.716;8.962;2023-04-24T04:43:10;3.45;;;1.33;;
71104;SDS011;58760;48.716;8.962;2023-04-24T04:45:36;2.55;;;1.13;;
71104;SDS011;58760;48.716;8.962;2023-04-24T04:48:03;4.20;;;1.40;;
71104;SDS011;58760;48.716;8.962;2023-04-24T04:50:29;3.65;;;1.15;;
71104;SDS011;58760;48.716;8.962;2023-04-24T04:52:55;3.47;;;1.30;;
71104;SDS011;58760;48.716;8.962;2023-04-24T04:55:20;2.72;;;1.30;;
71104;SDS011;58760;48.716;8.962;2023-04-24T04:57:46;2.28;;;1.20;;
71104;SDS011;58760;48.716;8.962;2023-04-24T05:00:11;2.17;;;1.15;;
71104;SDS011;58760;48.716;8.962;2023-04-24T05:02:40;3.67;;;1.30;;
71104;SDS011;58760;48.716;8.962;2023-04-24T05:05:06;1.95;;;1.05;;
71104;SDS011;58760;48.716;8.962;2023-04-24T05:07:32;1.98;;;1.20;;
71104;SDS011;58760;48.716;8.962;2023-04-24T05:09:57;2.63;;;1.10;;
71104;SDS011;58760;48.716;8.962;2023-04-24T05:12:23;2.00;;;0.93;;
71104;SDS011;58760;48.716;8.962;2023-04-24T05:14:48;2.33;;;1.30;;
71104;SDS011;58760;48.716;8.962;2023-04-24T05:17:14;2.50;;;1.20;;
71104;SDS011;58760;48.716;8.962;2023-04-24T05:19:40;3.72;;;1.38;;
71104;SDS011;58760;48.716;8.962;2023-04-24T05:22:05;2.83;;;1.23;;
71104;SDS011;58760;48.716;8.962;2023-04-24T05:24:32;3.63;;;1.20;;
71104;SDS011;58760;48.716;8.962;2023-04-24T05:26:58;2.78;;;1.40;;
71104;SDS011;58760;48.716;8.962;2023-04-24T05:29:24;4.10;;;1.40;;
71104;SDS011;58760;48.716;8.962;2023-04-24T05:34:16;5.20;;;1.70;;
71104;SDS011;58760;48.716;8.962;2023-04-24T05:36:42;4.68;;;1.70;;
71104;SDS011;58760;48.716;8.962;2023-04-24T05:39:07;3.40;;;1.60;;
71104;SDS011;58760;48.716;8.962;2023-04-24T05:41:33;3.20;;;1.60;;
71104;SDS011;58760;48.716;8.962;2023-04-24T05:43:59;4.57;;;1.65;;
71104;SDS011;58760;48.716;8.962;2023-04-24T05:46:24;3.58;;;1.65;;
71104;SDS011;58760;48.716;8.962;2023-04-24T05:48:50;4.88;;;1.73;;
71104;SDS011;58760;48.716;8.962;2023-04-24T05:51:15;4.28;;;1.70;;
71104;SDS011;58760;48.716;8.962;2023-04-24T05:53:40;3.45;;;1.60;;
71104;SDS011;58760;48.716;8.962;2023-04-24T05:56:06;3.75;;;1.85;;
71104;SDS011;58760;48.716;8.962;2023-04-24T05:58:31;4.28;;;1.80;;
71104;SDS011;58760;48.716;8.962;2023-04-24T06:00:56;6.88;;;1.70;;
71104;SDS011;58760;48.716;8.962;2023-04-24T06:03:23;3.72;;;1.52;;
71104;SDS011;58760;48.716;8.962;2023-04-24T06:05:50;3.85;;;1.75;;
71104;SDS011;58760;48.716;8.962;2023-04-24T06:08:16;8.07;;;2.00;;
71104;SDS011;58760;48.716;8.962;2023-04-24T06:10:42;4.75;;;1.73;;
71104;SDS011;58760;48.716;8.962;2023-04-24T06:13:07;4.60;;;1.70;;
71104;SDS011;58760;48.716;8.962;2023-04-24T06:15:32;4.78;;;1.65;;
71104;SDS011;58760;48.716;8.962;2023-04-24T06:17:58;3.53;;;1.80;;
71104;SDS011;58760;48.716;8.962;2023-04-24T06:20:23;5.10;;;1.90;;
71104;SDS011;58760;48.716;8.962;2023-04-24T06:22:49;6.30;;;2.08;;
71104;SDS011;58760;48.716;8.962;2023-04-24T06:25:15;4.97;;;1.70;;
71104;SDS011;58760;48.716;8.962;2023-04-24T06:27:40;5.32;;;1.70;;
71104;SDS011;58760;48.716;8.962;2023-04-24T06:30:06;6.10;;;1.60;;
71104;SDS011;58760;48.716;8.962;2023-04-24T06:32:32;5.20;;;1.85;;
71104;SDS011;58760;48.716;8.962;2023-04-24T06:34:57;5.00;;;1.40;;
71104;SDS011;58760;48.716;8.962;2023-04-24T06:37:23;3.10;;;1.50;;
71104;SDS011;58760;48.716;8.962;2023-04-24T06:39:48;3.05;;;1.52;;
71104;SDS011;58760;48.716;8.962;2023-04-24T06:42:14;4.95;;;1.50;;
71104;SDS011;58760;48.716;8.962;2023-04-24T06:44:39;4.38;;;1.15;;
71104;SDS011;58760;48.716;8.962;2023-04-24T06:47:08;3.63;;;1.60;;
71104;SDS011;58760;48.716;8.962;2023-04-24T06:49:37;4.43;;;1.48;;
71104;SDS011;58760;48.716;8.962;2023-04-24T06:52:02;4.28;;;1.67;;
71104;SDS011;58760;48.716;8.962;2023-04-24T06:54:28;4.35;;;1.38;;
71104;SDS011;58760;48.716;8.962;2023-04-24T06:56:54;4.05;;;1.58;;
71104;SDS011;58760;48.716;8.962;2023-04-24T06:59:20;6.20;;;1.50;;
71104;SDS011;58760;48.716;8.962;2023-04-24T07:01:45;3.42;;;1.38;;
71104;SDS011;58760;48.716;8.962;2023-04-24T07:04:11;4.60;;;1.50;;
71104;SDS011;58760;48.716;8.962;2023-04-24T07:06:38;6.13;;;1.60;;
71104;SDS011;58760;48.716;8.962;2023-04-24T07:09:04;3.22;;;1.30;;
71104;SDS011;58760;48.716;8.962;2023-04-24T07:11:29;3.60;;;1.20;;
71104;SDS011;58760;48.716;8.962;2023-04-24T07:13:57;3.13;;;1.30;;
71104;SDS011;58760;48.716;8.962;2023-04-24T07:16:23;3.30;;;1.10;;
71104;SDS011;58760;48.716;8.962;2023-04-24T07:18:48;3.30;;;1.33;;
71104;SDS011;58760;48.716;8.962;2023-04-24T07:21:14;3.15;;;1.13;;
71104;SDS011;58760;48.716;8.962;2023-04-24T07:23:39;4.40;;;1.40;;
71104;SDS011;58760;48.716;8.962;2023-04-24T07:28:31;3.30;;;1.23;;
71104;SDS011;58760;48.716;8.962;2023-04-24T07:30:57;2.55;;;1.30;;
71104;SDS011;58760;48.716;8.962;2023-04-24T07:33:23;1.48;;;1.00;;
71104;SDS011;58760;48.716;8.962;2023-04-24T07:35:49;3.38;;;1.35;;
71104;SDS011;58760;48.716;8.962;2023-04-24T07:38:15;4.22;;;1.33;;
71104;SDS011;58760;48.716;8.962;2023-04-24T07:40:40;2.85;;;0.90;;
71104;SDS011;58760;48.716;8.962;2023-04-24T07:43:05;2.90;;;1.30;;
71104;SDS011;58760;48.716;8.962;2023-04-24T07:45:31;2.63;;;1.02;;
71104;SDS011;58760;48.716;8.962;2023-04-24T07:47:58;4.03;;;1.10;;
71104;SDS011;58760;48.716;8.962;2023-04-24T07:50:23;3.15;;;1.30;;
71104;SDS011;58760;48.716;8.962;2023-04-24T07:52:49;4.88;;;1.10;;
71104;SDS011;58760;48.716;8.962;2023-04-24T07:55:15;2.50;;;1.02;;
71104;SDS011;58760;48.716;8.962;2023-04-24T07:57:40;3.60;;;1.20;;
71104;SDS011;58760;48.716;8.962;2023-04-24T08:00:06;2.90;;;1.00;;
71104;SDS011;58760;48.716;8.962;2023-04-24T08:02:32;5.30;;;1.30;;
71104;SDS011;58760;48.716;8.962;2023-04-24T08:04:57;2.90;;;1.10;;
71104;SDS011;58760;48.716;8.962;2023-04-24T08:07:23;2.55;;;1.02;;
71104;SDS011;58760;48.716;8.962;2023-04-24T08:09:48;3.17;;;1.02;;
71104;SDS011;58760;48.716;8.962;2023-04-24T08:12:14;4.75;;;1.00;;
71104;SDS011;58760;48.716;8.962;2023-04-24T08:14:39;2.67;;;0.88;;
71104;SDS011;58760;48.716;8.962;2023-04-24T08:17:05;4.40;;;1.30;;
71104;SDS011;58760;48.716;8.962;2023-04-24T08:19:30;1.73;;;1.00;;
71104;SDS011;58760;48.716;8.962;2023-04-24T08:21:56;3.63;;;1.15;;
71104;SDS011;58760;48.716;8.962;2023-04-24T08:24:21;2.92;;;1.02;;
71104;SDS011;58760;48.716;8.962;2023-04-24T08:26:47;3.05;;;1.10;;
71104;SDS011;58760;48.716;8.962;2023-04-24T08:29:17;3.03;;;0.85;;
71104;SDS011;58760;48.716;8.962;2023-04-24T08:31:42;3.65;;;1.00;;
71104;SDS011;58760;48.716;8.962;2023-04-24T08:34:09;3.42;;;1.10;;
71104;SDS011;58760;48.716;8.962;2023-04-24T08:36:35;3.17;;;1.15;;
71104;SDS011;58760;48.716;8.962;2023-04-24T08:39:01;2.83;;;1.13;;
71104;SDS011;58760;48.716;8.962;2023-04-24T08:41:26;2.92;;;0.98;;
71104;SDS011;58760;48.716;8.962;2023-04-24T08:43:52;3.00;;;1.10;;
71104;SDS011;58760;48.716;8.962;2023-04-24T08:46:19;3.63;;;1.10;;
71104;SDS011;58760;48.716;8.962;2023-04-24T08:48:45;2.20;;;1.10;;
71104;SDS011;58760;48.716;8.962;2023-04-24T08:51:11;3.35;;;1.00;;
71104;SDS011;58760;48.716;8.962;2023-04-24T08:53:36;3.25;;;1.30;;
71104;SDS011;58760;48.716;8.962;2023-04-24T08:56:03;6.03;;;1.40;;
71104;SDS011;58760;48.716;8.962;2023-04-24T08:58:29;3.15;;;1.23;;
71104;SDS011;58760;48.716;8.962;2023-04-24T09:00:54;2.42;;;1.10;;
71104;SDS011;58760;48.716;8.962;2023-04-24T09:03:20;3.83;;;1.13;;
71104;SDS011;58760;48.716;8.962;2023-04-24T09:05:47;3.75;;;1.30;;
71104;SDS011;58760;48.716;8.962;2023-04-24T09:08:14;3.53;;;1.23;;
71104;SDS011;58760;48.716;8.962;2023-04-24T09:10:42;2.47;;;1.23;;
71104;SDS011;58760;48.716;8.962;2023-04-24T09:13:08;2.30;;;1.00;;
71104;SDS011;58760;48.716;8.962;2023-04-24T09:15:35;3.67;;;1.10;;
71104;SDS011;58760;48.716;8.962;2023-04-24T09:18:04;3.35;;;1.42;;
71104;SDS011;58760;48.716;8.962;2023-04-24T09:20:30;3.55;;;0.93;;
71104;SDS011;58760;48.716;8.962;2023-04-24T09:22:59;4.68;;;0.88;;
71104;SDS011;58760;48.716;8.962;2023-04-24T09:25:34;2.95;;;0.90;;
71104;SDS011;58760;48.716;8.962;2023-04-24T09:28:03;5.20;;;0.80;;
71104;SDS011;58760;48.716;8.962;2023-04-24T09:30:31;3.85;;;1.02;;
71104;SDS011;58760;48.716;8.962;2023-04-24T09:33:10;3.75;;;1.10;;
71104;SDS011;58760;48.716;8.962;2023-04-24T09:35:42;2.25;;;0.80;;
71104;SDS011;58760;48.716;8.962;2023-04-24T09:38:14;4.57;;;1.00;;
71104;SDS011;58760;48.716;8.962;2023-04-24T09:40:40;3.13;;;1.10;;
71104;SDS011;58760;48.716;8.962;2023-04-24T09:43:09;1.85;;;0.68;;
71104;SDS011;58760;48.716;8.962;2023-04-24T09:45:37;3.08;;;0.80;;
71104;SDS011;58760;48.716;8.962;2023-04-24T09:48:04;2.75;;;0.80;;
71104;SDS011;58760;48.716;8.962;2023-04-24T09:50:31;2.70;;;0.70;;
71104;SDS011;58760;48.716;8.962;2023-04-24T09:52:58;3.78;;;1.08;;
71104;SDS011;58760;48.716;8.962;2023-04-24T09:55:26;6.03;;;1.08;;
71104;SDS011;58760;48.716;8.962;2023-04-24T09:57:56;2.97;;;0.82;;
71104;SDS011;58760;48.716;8.962;2023-04-24T10:00:26;2.25;;;1.15;;
71104;SDS011;58760;48.716;8.962;2023-04-24T10:05:31;2.00;;;0.90;;
71104;SDS011;58760;48.716;8.962;2023-04-24T10:10:31;3.38;;;0.90;;
71104;SDS011;58760;48.716;8.962;2023-04-24T10:12:59;1.92;;;0.73;;
71104;SDS011;58760;48.716;8.962;2023-04-24T10:15:25;3.13;;;1.00;;
71104;SDS011;58760;48.716;8.962;2023-04-24T10:17:51;1.60;;;0.80;;
71104;SDS011;58760;48.716;8.962;2023-04-24T10:20:20;2.47;;;0.88;;
71104;SDS011;58760;48.716;8.962;2023-04-24T10:22:53;1.00;;;0.70;;
71104;SDS011;58760;48.716;8.962;2023-04-24T10:25:20;2.15;;;0.80;;
71104;SDS011;58760;48.716;8.962;2023-04-24T10:27:47;2.45;;;0.80;;
71104;SDS011;58760;48.716;8.962;2023-04-24T10:30:13;1.60;;;0.90;;
71104;SDS011;58760;48.716;8.962;2023-04-24T10:32:39;2.50;;;0.88;;
71104;SDS011;58760;48.716;8.962;2023-04-24T10:35:08;1.33;;;0.80;;
71104;SDS011;58760;48.716;8.962;2023-04-24T10:37:38;3.17;;;0.70;;
71104;SDS011;58760;48.716;8.962;2023-04-24T10:40:07;1.85;;;0.90;;
71104;SDS011;58760;48.716;8.962;2023-04-24T10:42:34;1.92;;;0.70;;
71104;SDS011;58760;48.716;8.962;2023-04-24T10:45:04;4.90;;;0.90;;
71104;SDS011;58760;48.716;8.962;2023-04-24T10:47:38;2.92;;;0.70;;
71104;SDS011;58760;48.716;8.962;2023-04-24T10:50:07;2.00;;;0.70;;
71104;SDS011;58760;48.716;8.962;2023-04-24T10:52:46;1.52;;;0.70;;
71104;SDS011;58760;48.716;8.962;2023-04-24T10:55:13;3.40;;;0.73;;
71104;SDS011;58760;48.716;8.962;2023-04-24T10:58:01;4.03;;;1.00;;
71104;SDS011;58760;48.716;8.962;2023-04-24T11:00:28;1.83;;;0.70;;
71104;SDS011;58760;48.716;8.962;2023-04-24T11:02:53;3.50;;;0.73;;
71104;SDS011;58760;48.716;8.962;2023-04-24T11:05:20;4.63;;;1.17;;
71104;SDS011;58760;48.716;8.962;2023-04-24T11:10:38;2.38;;;1.00;;
71104;SDS011;58760;48.716;8.962;2023-04-24T11:13:05;1.75;;;0.80;;
71104;SDS011;58760;48.716;8.962;2023-04-24T11:15:30;3.13;;;1.00;;
71104;SDS011;58760;48.716;8.962;2023-04-24T11:17:55;4.00;;;0.80;;
71104;SDS011;58760;48.716;8.962;2023-04-24T11:20:22;2.17;;;0.90;;
71104;SDS011;58760;48.716;8.962;2023-04-24T11:22:49;1.67;;;0.80;;
71104;SDS011;58760;48.716;8.962;2023-04-24T11:25:19;1.77;;;0.77;;
71104;SDS011;58760;48.716;8.962;2023-04-24T11:27:47;2.22;;;0.90;;
71104;SDS011;58760;48.716;8.962;2023-04-24T11:30:18;2.45;;;0.80;;
71104;SDS011;58760;48.716;8.962;2023-04-24T11:32:47;1.58;;;0.57;;
71104;SDS011;58760;48.716;8.962;2023-04-24T11:35:19;2.67;;;0.95;;
71104;SDS011;58760;48.716;8.962;2023-04-24T11:40:14;3.03;;;1.17;;
71104;SDS011;58760;48.716;8.962;2023-04-24T11:42:42;2.70;;;1.17;;
71104;SDS011;58760;48.716;8.962;2023-04-24T11:45:16;3.05;;;1.08;;
71104;SDS011;58760;48.716;8.962;2023-04-24T11:47:43;2.05;;;0.80;;
71104;SDS011;58760;48.716;8.962;2023-04-24T11:50:12;1.73;;;0.90;;
71104;SDS011;58760;48.716;8.962;2023-04-24T11:52:40;1.63;;;0.82;;
71104;SDS011;58760;48.716;8.962;2023-04-24T11:55:07;1.58;;;0.90;;
71104;SDS011;58760;48.716;8.962;2023-04-24T11:57:38;1.77;;;0.95;;
71104;SDS011;58760;48.716;8.962;2023-04-24T12:00:04;2.60;;;1.15;;
71104;SDS011;58760;48.716;8.962;2023-04-24T12:02:30;2.88;;;1.00;;
71104;SDS011;58760;48.716;8.962;2023-04-24T12:04:56;2.33;;;1.10;;
71104;SDS011;58760;48.716;8.962;2023-04-24T12:07:22;2.47;;;1.27;;
71104;SDS011;58760;48.716;8.962;2023-04-24T12:12:23;4.10;;;1.40;;
71104;SDS011;58760;48.716;8.962;2023-04-24T12:14:54;4.32;;;1.20;;
71104;SDS011;58760;48.716;8.962;2023-04-24T12:17:28;3.05;;;1.10;;
71104;SDS011;58760;48.716;8.962;2023-04-24T12:22:27;2.83;;;0.98;;
71104;SDS011;58760;48.716;8.962;2023-04-24T12:24:57;2.13;;;0.90;;
71104;SDS011;58760;48.716;8.962;2023-04-24T12:27:24;2.30;;;1.20;;
71104;SDS011;58760;48.716;8.962;2023-04-24T12:29:53;1.73;;;0.90;;
71104;SDS011;58760;48.716;8.962;2023-04-24T12:32:22;2.63;;;0.80;;
71104;SDS011;58760;48.716;8.962;2023-04-24T12:34:51;1.65;;;0.80;;
71104;SDS011;58760;48.716;8.962;2023-04-24T12:37:18;0.98;;;0.60;;
71104;SDS011;58760;48.716;8.962;2023-04-24T12:39:59;1.73;;;0.60;;
71104;SDS011;58760;48.716;8.962;2023-04-24T12:42:26;1.23;;;0.85;;
71104;SDS011;58760;48.716;8.962;2023-04-24T12:44:55;1.23;;;0.80;;
71104;SDS011;58760;48.716;8.962;2023-04-24T12:47:23;2.75;;;0.80;;
71104;SDS011;58760;48.716;8.962;2023-04-24T12:49:50;3.22;;;0.75;;
71104;SDS011;58760;48.716;8.962;2023-04-24T12:52:17;2.50;;;0.88;;
71104;SDS011;58760;48.716;8.962;2023-04-24T12:54:45;1.65;;;0.88;;
71104;SDS011;58760;48.716;8.962;2023-04-24T12:57:10;2.33;;;0.90;;
71104;SDS011;58760;48.716;8.962;2023-04-24T12:59:36;3.05;;;1.08;;
71104;SDS011;58760;48.716;8.962;2023-04-24T13:02:01;2.30;;;0.93;;
71104;SDS011;58760;48.716;8.962;2023-04-24T13:04:27;1.52;;;0.90;;
71104;SDS011;58760;48.716;8.962;2023-04-24T13:06:53;2.88;;;1.10;;
71104;SDS011;58760;48.716;8.962;2023-04-24T13:09:18;2.05;;;1.00;;
71104;SDS011;58760;48.716;8.962;2023-04-24T13:11:43;3.08;;;1.00;;
71104;SDS011;58760;48.716;8.962;2023-04-24T13:14:09;3.05;;;1.10;;
71104;SDS011;58760;48.716;8.962;2023-04-24T13:16:34;4.32;;;1.60;;
71104;SDS011;58760;48.716;8.962;2023-04-24T13:18:59;3.35;;;1.10;;
71104;SDS011;58760;48.716;8.962;2023-04-24T13:21:25;3.58;;;1.23;;
71104;SDS011;58760;48.716;8.962;2023-04-24T13:23:51;3.15;;;1.20;;
71104;SDS011;58760;48.716;8.962;2023-04-24T13:26:16;3.47;;;1.15;;
71104;SDS011;58760;48.716;8.962;2023-04-24T13:28:42;2.80;;;1.13;;
71104;SDS011;58760;48.716;8.962;2023-04-24T13:31:07;2.60;;;1.08;;
71104;SDS011;58760;48.716;8.962;2023-04-24T13:33:33;2.22;;;1.13;;
71104;SDS011;58760;48.716;8.962;2023-04-24T13:35:58;1.77;;;0.93;;
71104;SDS011;58760;48.716;8.962;2023-04-24T13:38:23;2.35;;;1.13;;
71104;SDS011;58760;48.716;8.962;2023-04-24T13:40:49;3.30;;;1.20;;
71104;SDS011;58760;48.716;8.962;2023-04-24T13:43:14;3.03;;;1.25;;
71104;SDS011;58760;48.716;8.962;2023-04-24T13:45:40;2.13;;;0.98;;
71104;SDS011;58760;48.716;8.962;2023-04-24T13:48:06;3.78;;;1.10;;
71104;SDS011;58760;48.716;8.962;2023-04-24T13:50:31;1.98;;;1.27;;
71104;SDS011;58760;48.716;8.962;2023-04-24T13:52:57;2.15;;;1.10;;
71104;SDS011;58760;48.716;8.962;2023-04-24T13:55:22;5.95;;;1.10;;
71104;SDS011;58760;48.716;8.962;2023-04-24T13:57:47;2.92;;;1.17;;
71104;SDS011;58760;48.716;8.962;2023-04-24T14:00:14;3.33;;;1.50;;
71104;SDS011;58760;48.716;8.962;2023-04-24T14:02:40;3.47;;;1.35;;
71104;SDS011;58760;48.716;8.962;2023-04-24T14:05:05;2.55;;;1.20;;
71104;SDS011;58760;48.716;8.962;2023-04-24T14:07:31;2.92;;;1.38;;
71104;SDS011;58760;48.716;8.962;2023-04-24T14:09:56;5.78;;;1.70;;
71104;SDS011;58760;48.716;8.962;2023-04-24T14:12:22;4.35;;;1.60;;
71104;SDS011;58760;48.716;8.962;2023-04-24T14:14:47;3.60;;;1.63;;
71104;SDS011;58760;48.716;8.962;2023-04-24T14:17:13;2.80;;;1.25;;
71104;SDS011;58760;48.716;8.962;2023-04-24T14:19:39;3.47;;;1.23;;
71104;SDS011;58760;48.716;8.962;2023-04-24T14:22:04;3.40;;;1.50;;
71104;SDS011;58760;48.716;8.962;2023-04-24T14:24:30;6.32;;;1.50;;
71104;SDS011;58760;48.716;8.962;2023-04-24T14:26:55;3.13;;;1.33;;
71104;SDS011;58760;48.716;8.962;2023-04-24T14:29:21;3.70;;;1.38;;
71104;SDS011;58760;48.716;8.962;2023-04-24T14:31:47;3.22;;;1.48;;
71104;SDS011;58760;48.716;8.962;2023-04-24T14:34:13;4.40;;;1.50;;
71104;SDS011;58760;48.716;8.962;2023-04-24T14:36:39;5.00;;;1.30;;
71104;SDS011;58760;48.716;8.962;2023-04-24T14:39:05;3.72;;;1.48;;
71104;SDS011;58760;48.716;8.962;2023-04-24T14:41:31;3.90;;;1.38;;
71104;SDS011;58760;48.716;8.962;2023-04-24T14:44:00;3.28;;;1.40;;
71104;SDS011;58760;48.716;8.962;2023-04-24T14:46:29;3.53;;;1.35;;
71104;SDS011;58760;48.716;8.962;2023-04-24T14:48:57;4.57;;;1.40;;
71104;SDS011;58760;48.716;8.962;2023-04-24T14:51:23;2.25;;;1.20;;
71104;SDS011;58760;48.716;8.962;2023-04-24T14:53:48;3.72;;;1.30;;
71104;SDS011;58760;48.716;8.962;2023-04-24T14:56:14;3.65;;;1.40;;
71104;SDS011;58760;48.716;8.962;2023-04-24T14:58:40;4.05;;;1.40;;
71104;SDS011;58760;48.716;8.962;2023-04-24T15:01:05;3.47;;;1.70;;
71104;SDS011;58760;48.716;8.962;2023-04-24T15:03:31;2.88;;;1.20;;
71104;SDS011;58760;48.716;8.962;2023-04-24T15:05:56;4.00;;;1.35;;